FOLSOM LAKE (FOL)

Elevation: 466' · AMERICAN R basin · Operator: US Bureau of Reclamation

Provisional data, subject to change.
Query executed Saturday at 3:21:43   clock

Select a sensor type for a plot of data.
Note: Reservoir Flows are daily averages.

Earlier

Date RES ELE    STORAGE    RES CHG    TOC STO    ABV TOC    OUTFLOW    INFLOW    EVAP    FNF    RIV REL    PPT INC    SPILL    DC PUMP    DIS PWR   
 FEET   AF   AF   AF   AF   CFS   CFS   CFS   CFS   CFS   INCHES   CFS   CFS   CFS  
09/02/2016 394.65 344922 -999 977000 -632078 1981 1525 48 44 e 0 0.00 0 215 1766
09/03/2016 394.48 343860 -1062 977000 -633140 2112 1642 65 44 e 0 0.00 0 208 1904
09/04/2016 394.36 343110 -750 977000 -633890 1912 1582 48 44 e 0 0.00 0 208 1704
09/05/2016 394.12 341611 -1499 977000 -635389 2300 1600 56 44 e 0 0.00 0 197 2103
09/06/2016 393.87 340059 -1552 977000 -636941 1948 1222 56 44 e 0 0.00 0 204 1744
09/07/2016 393.65 338701 -1358 977000 -638299 1725 1102 62 55 e 0 0.00 0 201 1524
09/08/2016 393.46 337528 -1173 977000 -639472 1820 1287 58 16 e 0 0.00 0 175 1645
09/09/2016 393.34 336787 -741 977000 -640213 1849 1524 49 16 e 0 0.00 0 204 1645
09/10/2016 393.24 336170 -617 977000 -640830 1831 1576 56 16 e 0 0.00 0 204 1627
09/11/2016 392.99 334628 -1542 977000 -642372 2068 1346 55 16 e 0 0.00 0 201 1867
09/12/2016 392.69 332798 -1830 977000 -644202 1718 838 43 15 e 0 0.00 0 175 1543
09/13/2016 392.39 330969 -1829 977000 -646031 1587 702 37 15 e 0 0.00 0 181 1406
09/14/2016 392.22 329932 -1037 977000 -647068 1414 930 39 15 e 0 0.00 0 185 1229
09/15/2016 392.04 328834 -1098 977000 -648166 1706 1195 43 85 e 0 0.00 0 166 1540
09/16/2016 391.82 327505 -1329 977000 -649495 1901 1275 44 85 e 0 0.00 0 187 1714
09/17/2016 391.62 326300 -1205 977000 -650700 1733 1173 48 36 e 0 0.00 0 182 1551
09/18/2016 391.37 324794 -1506 977000 -652206 1826 1127 60 36 e 0 0.00 0 185 1641
09/19/2016 391.05 322865 -- 977000 -654135 1908 999 64 36 e 0 0.00 0 186 1722
09/20/2016 390.84 321612 -1253 977000 -655388 1899 1331 64 35 e 0 0.00 0 187 1712
09/21/2016 390.51 319648 -1964 977000 -657352 1856 920 54 35 e 0 0.00 0 191 1665
09/22/2016 390.33 318577 -1071 977000 -658423 1741 1239 38 124 e 0 0.00 0 175 1566
09/23/2016 390.00 316613 -1964 977000 -660387 1889 940 41 97 e 0 0.00 0 180 1709
09/24/2016 389.71 314908 -1705 977000 -662092 1910 1093 43 37 e 0 0.00 0 187 1723
09/25/2016 389.45 313380 -1528 977000 -663620 1866 1135 39 36 e 0 0.00 0 184 1682
09/26/2016 389.15 311616 -1764 977000 -665384 1895 1055 49 124 e 0 0.00 0 185 1710
09/27/2016 388.96 310502 -1114 977000 -666498 1895 1380 47 124 e 0 0.00 0 185 1710
09/28/2016 388.68 308876 -1626 977000 -668124 1930 1162 52 124 e 0 0.00 0 178 1752
09/29/2016 388.49 307773 -1103 977000 -669227 1749 1243 50 -- 0 0.00 0 169 1580
09/30/2016 -- -- -- 977000 -- -- -- -- -- -- -- -- -- --
10/01/2016 -- -- -- -- -- -- -- -- -- -- -- -- -- --

Later | Latest

Warning! This data is preliminary and subject to revision.

Show FOL Map | Plot FOL Data | 1 Month FOL Data | Real-Time FOL Data | FOL Info